Time,TemperatureF,DewpointF,PressureIn,WindDirection,WindDirectionDegrees,WindSpeedMPH,WindSpeedGustMPH,Humidity,HourlyPrecipIn,Conditions,Clouds,dailyrainin,SoftwareType,DateUTC
2013-03-14 00:00:00,53.1,48.4,30.05,East,100,0.0,2.0,84,0.00,,,-99.99,Weather View 32 v60,2013-03-14 07:00:00,
2013-03-14 00:05:00,53.1,48.4,30.05,South,169,2.0,2.0,84,0.00,,,-99.99,Weather View 32 v60,2013-03-14 07:05:00,
2013-03-14 00:10:00,53.2,48.5,30.06,South,174,1.0,2.0,84,0.00,,,-99.99,Weather View 32 v60,2013-03-14 07:10:00,
2013-03-14 00:15:00,53.2,48.5,30.06,SSE,164,2.0,2.0,84,0.00,,,-99.99,Weather View 32 v60,2013-03-14 07:15:00,
2013-03-14 00:20:00,53.2,48.5,30.06,South,174,1.0,2.0,84,0.00,,,-99.99,Weather View 32 v60,2013-03-14 07:20:00,
2013-03-14 00:25:00,53.0,48.0,30.06,South,169,2.0,3.0,83,0.00,,,-99.99,Weather View 32 v60,2013-03-14 07:25:00,
2013-03-14 00:30:00,52.8,47.8,30.06,SSE,159,2.0,3.0,83,0.00,,,-99.99,Weather View 32 v60,2013-03-14 07:30:00,
2013-03-14 00:35:00,52.6,47.6,30.05,SSE,161,1.0,3.0,83,0.00,,,-99.99,Weather View 32 v60,2013-03-14 07:35:00,
2013-03-14 00:40:00,52.4,47.4,30.06,SSE,151,1.0,3.0,83,0.00,,,-99.99,Weather View 32 v60,2013-03-14 07:40:00,
2013-03-14 00:45:00,52.3,47.3,30.06,SSE,152,1.0,3.0,83,0.00,,,-99.99,Weather View 32 v60,2013-03-14 07:45:00,
2013-03-14 00:50:00,52.1,47.4,30.06,SE,141,1.0,3.0,84,0.00,,,-99.99,Weather View 32 v60,2013-03-14 07:50:00,
2013-03-14 00:55:00,51.9,47.2,30.06,SSW,203,1.0,3.0,84,0.00,,,-99.99,Weather View 32 v60,2013-03-14 07:55:00,
2013-03-14 01:00:00,51.6,46.9,30.06,SE,131,2.0,3.0,84,0.00,,,-99.99,Weather View 32 v60,2013-03-14 08:00:00,
2013-03-14 01:05:00,51.4,46.7,30.06,SE,137,2.0,3.0,84,0.00,,,-99.99,Weather View 32 v60,2013-03-14 08:05:00,
2013-03-14 01:10:00,51.3,46.6,30.06,SSE,151,1.0,3.0,84,0.00,,,-99.99,Weather View 32 v60,2013-03-14 08:10:00,
2013-03-14 01:15:00,51.2,46.5,30.06,SW,221,2.0,3.0,84,0.00,,,-99.99,Weather View 32 v60,2013-03-14 08:15:00,
2013-03-14 01:20:00,51.0,46.3,30.06,SSW,206,2.0,3.0,84,0.00,,,-99.99,Weather View 32 v60,2013-03-14 08:20:00,
2013-03-14 01:25:00,50.8,46.1,30.06,SE,146,0.0,3.0,84,0.00,,,-99.99,Weather View 32 v60,2013-03-14 08:25:00,
2013-03-14 01:30:00,50.7,46.0,30.06,SSE,149,1.0,3.0,84,0.00,,,-99.99,Weather View 32 v60,2013-03-14 08:30:00,
2013-03-14 01:35:00,50.5,45.8,30.06,SE,141,1.0,3.0,84,0.00,,,-99.99,Weather View 32 v60,2013-03-14 08:35:00,
2013-03-14 01:40:00,50.4,45.7,30.06,SE,136,1.0,3.0,84,0.00,,,-99.99,Weather View 32 v60,2013-03-14 08:40:00,
2013-03-14 01:45:00,50.3,45.6,30.06,SE,136,1.0,3.0,84,0.00,,,-99.99,Weather View 32 v60,2013-03-14 08:45:00,
2013-03-14 01:50:00,50.1,45.4,30.06,East,86,2.0,3.0,84,0.00,,,-99.99,Weather View 32 v60,2013-03-14 08:50:00,
2013-03-14 01:55:00,49.9,45.2,30.06,East,85,1.0,3.0,84,0.00,,,-99.99,Weather View 32 v60,2013-03-14 08:55:00,
2013-03-14 02:00:00,49.9,45.6,30.06,East,100,1.0,3.0,85,0.00,,,-99.99,Weather View 32 v60,2013-03-14 09:00:00,
2013-03-14 02:05:00,49.9,45.6,30.06,ESE,102,0.0,2.0,85,0.00,,,-99.99,Weather View 32 v60,2013-03-14 09:05:00,
2013-03-14 02:10:00,49.9,45.6,30.06,ESE,103,1.0,2.0,85,0.00,,,-99.99,Weather View 32 v60,2013-03-14 09:10:00,
2013-03-14 02:15:00,49.8,45.5,30.06,ESE,103,1.0,2.0,85,0.00,,,-99.99,Weather View 32 v60,2013-03-14 09:15:00,
2013-03-14 02:20:00,49.8,45.5,30.06,ESE,113,1.0,2.0,85,0.00,,,-99.99,Weather View 32 v60,2013-03-14 09:20:00,
2013-03-14 02:25:00,49.7,45.4,30.05,ESE,120,2.0,2.0,85,0.00,,,-99.99,Weather View 32 v60,2013-03-14 09:25:00,
2013-03-14 02:30:00,49.6,45.3,30.05,ESE,120,1.0,2.0,85,0.00,,,-99.99,Weather View 32 v60,2013-03-14 09:30:00,
2013-03-14 02:45:00,49.3,45.3,30.05,ESE,113,1.0,2.0,86,0.00,,,-99.99,Weather View 32 v60,2013-03-14 09:45:00,
2013-03-14 02:50:00,49.3,45.3,30.05,SSE,165,1.0,2.0,86,0.00,,,-99.99,Weather View 32 v60,2013-03-14 09:50:00,
2013-03-14 03:00:00,49.2,45.2,30.05,ESE,109,1.0,2.0,86,0.00,,,-99.99,Weather View 32 v60,2013-03-14 10:00:00,
2013-03-14 03:05:00,49.2,45.2,30.05,ESE,107,1.0,2.0,86,0.00,,,-99.99,Weather View 32 v60,2013-03-14 10:05:00,
2013-03-14 03:10:00,49.0,45.0,30.04,East,87,1.0,2.0,86,0.00,,,-99.99,Weather View 32 v60,2013-03-14 10:10:00,
2013-03-14 03:20:00,48.7,44.7,30.05,East,87,0.0,2.0,86,0.00,,,-99.99,Weather View 32 v60,2013-03-14 10:20:00,
2013-03-14 03:25:00,48.6,44.6,30.04,East,94,2.0,2.0,86,0.00,,,-99.99,Weather View 32 v60,2013-03-14 10:25:00,
2013-03-14 03:38:00,49.5,45.2,30.05,ESE,120,1.0,2.0,85,0.00,,,-99.99,Weather View 32 v60,2013-03-14 10:38:00,
2013-03-14 03:43:00,49.4,45.4,30.05,ESE,120,1.0,2.0,86,0.00,,,-99.99,Weather View 32 v60,2013-03-14 10:43:00,
2013-03-14 03:50:00,47.8,44.1,30.04,ESE,102,0.0,2.0,87,0.00,,,-99.99,Weather View 32 v60,2013-03-14 10:50:00,
2013-03-14 03:58:00,49.2,45.2,30.05,SSE,165,1.0,2.0,86,0.00,,,-99.99,Weather View 32 v60,2013-03-14 10:58:00,
2013-03-14 04:00:00,48.0,44.6,30.04,ESE,103,0.0,2.0,88,0.00,,,-99.99,Weather View 32 v60,2013-03-14 11:00:00,
2013-03-14 04:10:00,47.7,44.3,30.05,ESE,103,0.0,2.0,88,0.00,,,-99.99,Weather View 32 v60,2013-03-14 11:10:00,
2013-03-14 04:18:00,48.9,44.9,30.05,East,87,1.0,2.0,86,0.00,,,-99.99,Weather View 32 v60,2013-03-14 11:18:00,
2013-03-14 04:25:00,47.1,43.7,30.04,NE,46,0.0,2.0,88,0.00,,,-99.99,Weather View 32 v60,2013-03-14 11:25:00,
2013-03-14 04:33:00,48.5,44.8,30.04,East,99,1.0,2.0,87,0.00,,,-99.99,Weather View 32 v60,2013-03-14 11:33:00,
2013-03-14 04:38:00,48.3,44.6,30.04,ESE,103,1.0,2.0,87,0.00,,,-99.99,Weather View 32 v60,2013-03-14 11:38:00,
2013-03-14 04:43:00,48.1,44.4,30.04,ESE,103,0.0,2.0,87,0.00,,,-99.99,Weather View 32 v60,2013-03-14 11:43:00,
2013-03-14 04:45:00,47.0,43.9,30.05,WSW,243,1.0,2.0,89,0.00,,,-99.99,Weather View 32 v60,2013-03-14 11:45:00,
2013-03-14 04:48:00,48.0,44.3,30.04,ESE,103,0.0,2.0,87,0.00,,,-99.99,Weather View 32 v60,2013-03-14 11:48:00,
2013-03-14 04:50:00,47.0,43.9,30.05,WSW,249,0.0,2.0,89,0.00,,,-99.99,Weather View 32 v60,2013-03-14 11:50:00,
2013-03-14 04:53:00,47.8,44.1,30.04,ESE,102,0.0,2.0,87,0.00,,,-99.99,Weather View 32 v60,2013-03-14 11:53:00,
2013-03-14 04:55:00,46.9,43.8,30.05,WSW,248,0.0,2.0,89,0.00,,,-99.99,Weather View 32 v60,2013-03-14 11:55:00,
2013-03-14 04:58:00,47.9,44.5,30.04,ESE,103,0.0,2.0,88,0.00,,,-99.99,Weather View 32 v60,2013-03-14 11:58:00,
2013-03-14 05:00:00,47.0,43.9,30.05,SSW,209,0.0,2.0,89,0.00,,,-99.99,Weather View 32 v60,2013-03-14 12:00:00,
2013-03-14 05:05:00,47.0,43.9,30.06,SSW,209,0.0,2.0,89,0.00,,,-99.99,Weather View 32 v60,2013-03-14 12:05:00,
2013-03-14 05:08:00,47.9,44.5,30.04,ESE,103,0.0,2.0,88,0.00,,,-99.99,Weather View 32 v60,2013-03-14 12:08:00,
2013-03-14 05:10:00,46.9,43.8,30.06,SSE,160,0.0,2.0,89,0.00,,,-99.99,Weather View 32 v60,2013-03-14 12:10:00,
2013-03-14 05:15:00,46.8,43.7,30.06,East,85,2.0,2.0,89,0.00,,,-99.99,Weather View 32 v60,2013-03-14 12:15:00,
2013-03-14 05:18:00,47.4,44.0,30.05,ESE,103,0.0,2.0,88,0.00,,,-99.99,Weather View 32 v60,2013-03-14 12:18:00,
2013-03-14 05:23:00,47.3,43.9,30.04,ESE,103,0.0,2.0,88,0.00,,,-99.99,Weather View 32 v60,2013-03-14 12:23:00,
2013-03-14 05:33:00,47.0,43.6,30.05,NE,55,0.0,2.0,88,0.00,,,-99.99,Weather View 32 v60,2013-03-14 12:33:00,
2013-03-14 05:38:00,46.8,43.4,30.05,NE,54,0.0,1.0,88,0.00,,,-99.99,Weather View 32 v60,2013-03-14 12:38:00,
2013-03-14 05:40:00,46.1,43.3,30.06,East,81,0.0,2.0,90,0.00,,,-99.99,Weather View 32 v60,2013-03-14 12:40:00,
2013-03-14 05:43:00,46.9,43.8,30.05,NE,55,0.0,0.0,89,0.00,,,-99.99,Weather View 32 v60,2013-03-14 12:43:00,
2013-03-14 05:50:00,46.2,43.4,30.06,East,81,1.0,2.0,90,0.00,,,-99.99,Weather View 32 v60,2013-03-14 12:50:00,
2013-03-14 05:53:00,47.0,43.9,30.05,WSW,249,0.0,2.0,89,0.00,,,-99.99,Weather View 32 v60,2013-03-14 12:53:00,
2013-03-14 05:55:00,46.3,43.5,30.06,East,87,2.0,2.0,90,0.00,,,-99.99,Weather View 32 v60,2013-03-14 12:55:00,
2013-03-14 06:00:00,46.2,43.4,30.06,East,94,1.0,2.0,90,0.00,,,-99.99,Weather View 32 v60,2013-03-14 13:00:00,
2013-03-14 06:20:00,46.2,43.4,30.07,ENE,75,1.0,2.0,90,0.00,,,-99.99,Weather View 32 v60,2013-03-14 13:20:00,
2013-03-14 06:23:00,46.5,43.4,30.06,East,85,1.0,2.0,89,0.00,,,-99.99,Weather View 32 v60,2013-03-14 13:23:00,
2013-03-14 06:25:00,46.2,43.4,30.07,ESE,105,2.0,2.0,90,0.00,,,-99.99,Weather View 32 v60,2013-03-14 13:25:00,
2013-03-14 06:28:00,46.4,43.3,30.06,East,82,0.0,2.0,89,0.00,,,-99.99,Weather View 32 v60,2013-03-14 13:28:00,
2013-03-14 06:30:00,46.2,43.4,30.06,ESE,110,2.0,2.0,90,0.00,,,-99.99,Weather View 32 v60,2013-03-14 13:30:00,
2013-03-14 06:33:00,46.3,43.2,30.06,East,82,0.0,2.0,89,0.00,,,-99.99,Weather View 32 v60,2013-03-14 13:33:00,
2013-03-14 06:35:00,46.2,43.4,30.07,East,98,0.0,2.0,90,0.00,,,-99.99,Weather View 32 v60,2013-03-14 13:35:00,
2013-03-14 06:38:00,46.1,43.0,30.06,East,82,0.0,2.0,89,0.00,,,-99.99,Weather View 32 v60,2013-03-14 13:38:00,
2013-03-14 06:40:00,46.4,43.9,30.07,West,263,1.0,2.0,91,0.00,,,-99.99,Weather View 32 v60,2013-03-14 13:40:00,
2013-03-14 06:45:00,46.7,44.2,30.07,WSW,248,0.0,2.0,91,0.00,,,-99.99,Weather View 32 v60,2013-03-14 13:45:00,
2013-03-14 06:48:00,45.9,43.1,30.06,East,81,0.0,2.0,90,0.00,,,-99.99,Weather View 32 v60,2013-03-14 13:48:00,
2013-03-14 06:50:00,47.0,44.5,30.07,WSW,246,1.0,2.0,91,0.00,,,-99.99,Weather View 32 v60,2013-03-14 13:50:00,
2013-03-14 06:55:00,47.3,44.8,30.07,SE,129,1.0,2.0,91,0.00,,,-99.99,Weather View 32 v60,2013-03-14 13:55:00,
2013-03-14 07:05:00,47.9,45.1,30.07,East,98,0.0,2.0,90,0.00,,,-99.99,Weather View 32 v60,2013-03-14 14:05:00,
2013-03-14 07:08:00,46.1,43.3,30.07,East,99,0.0,2.0,90,0.00,,,-99.99,Weather View 32 v60,2013-03-14 14:08:00,
2013-03-14 07:10:00,48.0,45.2,30.07,East,88,2.0,2.0,90,0.00,,,-99.99,Weather View 32 v60,2013-03-14 14:10:00,
2013-03-14 07:15:00,48.0,45.2,30.08,South,169,2.0,2.0,90,0.00,,,-99.99,Weather View 32 v60,2013-03-14 14:15:00,
2013-03-14 07:18:00,46.2,43.4,30.07,East,101,2.0,2.0,90,0.00,,,-99.99,Weather View 32 v60,2013-03-14 14:18:00,
2013-03-14 07:20:00,48.4,45.6,30.08,SW,217,1.0,2.0,90,0.00,,,-99.99,Weather View 32 v60,2013-03-14 14:20:00,
2013-03-14 07:25:00,48.7,45.6,30.08,West,279,1.0,3.0,89,0.00,,,-99.99,Weather View 32 v60,2013-03-14 14:25:00,
2013-03-14 07:30:00,49.0,45.9,30.08,West,268,2.0,3.0,89,0.00,,,-99.99,Weather View 32 v60,2013-03-14 14:30:00,
2013-03-14 07:35:00,49.3,45.9,30.09,WNW,285,1.0,3.0,88,0.00,,,-99.99,Weather View 32 v60,2013-03-14 14:35:00,
2013-03-14 07:40:00,49.6,46.2,30.09,WSW,250,1.0,3.0,88,0.00,,,-99.99,Weather View 32 v60,2013-03-14 14:40:00,
2013-03-14 07:50:00,50.0,46.3,30.09,WSW,256,0.0,3.0,87,0.00,,,-99.99,Weather View 32 v60,2013-03-14 14:50:00,
2013-03-14 07:55:00,50.5,46.5,30.10,WNW,299,0.0,3.0,86,0.00,,,-99.99,Weather View 32 v60,2013-03-14 14:55:00,
2013-03-14 08:40:00,54.0,47.6,30.11,West,274,1.0,3.0,79,0.00,,,-99.99,Weather View 32 v60,2013-03-14 15:40:00,
2013-03-14 08:48:00,49.9,46.2,30.09,WNW,290,2.0,3.0,87,0.00,,,-99.99,Weather View 32 v60,2013-03-14 15:48:00,
2013-03-14 08:50:00,54.5,47.8,30.11,WNW,300,1.0,3.0,78,0.00,,,-99.99,Weather View 32 v60,2013-03-14 15:50:00,
2013-03-14 08:55:00,54.8,47.7,30.11,NNW,333,1.0,3.0,77,0.00,,,-99.99,Weather View 32 v60,2013-03-14 15:55:00,
2013-03-14 09:00:00,54.9,47.8,30.11,NNW,333,0.0,3.0,77,0.00,,,-99.99,Weather View 32 v60,2013-03-14 16:00:00,
2013-03-14 09:03:00,51.0,47.0,30.10,NE,56,1.0,3.0,86,0.00,,,-99.99,Weather View 32 v60,2013-03-14 16:03:00,
2013-03-14 09:05:00,54.9,47.5,30.11,SSE,151,2.0,3.0,76,0.00,,,-99.99,Weather View 32 v60,2013-03-14 16:05:00,
2013-03-14 09:08:00,51.7,47.3,30.10,NE,53,1.0,3.0,85,0.00,,,-99.99,Weather View 32 v60,2013-03-14 16:08:00,
2013-03-14 09:13:00,52.1,47.1,30.10,NNE,30,1.0,3.0,83,0.00,,,-99.99,Weather View 32 v60,2013-03-14 16:13:00,
2013-03-14 09:15:00,55.8,48.0,30.11,SW,229,2.0,4.0,75,0.00,,,-99.99,Weather View 32 v60,2013-03-14 16:15:00,
2013-03-14 09:18:00,52.1,46.8,30.10,ESE,120,2.0,3.0,82,0.00,,,-99.99,Weather View 32 v60,2013-03-14 16:18:00,
2013-03-14 09:25:00,56.7,48.1,30.11,South,173,2.0,5.0,73,0.00,,,-99.99,Weather View 32 v60,2013-03-14 16:25:00,
2013-03-14 09:28:00,52.4,47.1,30.11,SE,139,1.0,3.0,82,0.00,,,-99.99,Weather View 32 v60,2013-03-14 16:28:00,
2013-03-14 09:33:00,53.0,47.3,30.11,West,277,1.0,3.0,81,0.00,,,-99.99,Weather View 32 v60,2013-03-14 16:33:00,
2013-03-14 09:38:00,53.3,47.3,30.11,SSE,158,1.0,3.0,80,0.00,,,-99.99,Weather View 32 v60,2013-03-14 16:38:00,
2013-03-14 09:45:00,58.9,49.5,30.11,WNW,292,2.0,5.0,71,0.00,,,-99.99,Weather View 32 v60,2013-03-14 16:45:00,
2013-03-14 09:48:00,54.4,47.7,30.11,NW,309,1.0,3.0,78,0.00,,,-99.99,Weather View 32 v60,2013-03-14 16:48:00,
2013-03-14 09:55:00,62.2,51.1,30.11,NE,53,1.0,5.0,67,0.00,,,-99.99,Weather View 32 v60,2013-03-14 16:55:00,
2013-03-14 09:58:00,54.8,47.7,30.11,NNW,333,1.0,3.0,77,0.00,,,-99.99,Weather View 32 v60,2013-03-14 16:58:00,
2013-03-14 10:05:00,63.1,50.3,30.11,NW,321,1.0,5.0,63,0.00,,,-99.99,Weather View 32 v60,2013-03-14 17:05:00,
2013-03-14 10:10:00,62.2,49.4,30.12,South,175,3.0,5.0,63,0.00,,,-99.99,Weather View 32 v60,2013-03-14 17:10:00,
2013-03-14 10:13:00,55.3,47.8,30.11,South,170,1.0,3.0,76,0.00,,,-99.99,Weather View 32 v60,2013-03-14 17:13:00,
2013-03-14 10:20:00,63.9,50.2,30.12,WSW,254,3.0,5.0,61,0.00,,,-99.99,Weather View 32 v60,2013-03-14 17:20:00,
2013-03-14 10:23:00,56.7,48.1,30.11,SW,219,3.0,5.0,73,0.00,,,-99.99,Weather View 32 v60,2013-03-14 17:23:00,
2013-03-14 10:25:00,64.1,50.3,30.12,West,272,2.0,5.0,61,0.00,,,-99.99,Weather View 32 v60,2013-03-14 17:25:00,
2013-03-14 10:33:00,57.1,48.5,30.11,SSE,153,2.0,5.0,73,0.00,,,-99.99,Weather View 32 v60,2013-03-14 17:33:00,
2013-03-14 10:38:00,57.5,48.9,30.11,SSE,165,4.0,5.0,73,0.00,,,-99.99,Weather View 32 v60,2013-03-14 17:38:00,
2013-03-14 10:40:00,64.3,49.6,30.12,SW,219,5.0,5.0,59,0.00,,,-99.99,Weather View 32 v60,2013-03-14 17:40:00,
2013-03-14 10:45:00,64.6,49.9,30.11,West,266,1.0,5.0,59,0.00,,,-99.99,Weather View 32 v60,2013-03-14 17:45:00,
2013-03-14 10:50:00,65.0,49.8,30.11,SSE,168,4.0,5.0,58,0.00,,,-99.99,Weather View 32 v60,2013-03-14 17:50:00,
2013-03-14 10:53:00,60.3,50.5,30.11,SW,220,0.0,5.0,70,0.00,,,-99.99,Weather View 32 v60,2013-03-14 17:53:00,
2013-03-14 11:05:00,64.4,50.2,30.10,SW,226,2.0,6.0,60,0.00,,,-99.99,Weather View 32 v60,2013-03-14 18:05:00,
2013-03-14 11:10:00,64.6,50.4,30.11,West,261,2.0,6.0,60,0.00,,,-99.99,Weather View 32 v60,2013-03-14 18:10:00,
2013-03-14 11:18:00,62.7,50.3,30.12,West,262,0.0,5.0,64,0.00,,,-99.99,Weather View 32 v60,2013-03-14 18:18:00,
2013-03-14 11:25:00,67.3,51.0,30.10,SSW,204,1.0,6.0,56,0.00,,,-99.99,Weather View 32 v60,2013-03-14 18:25:00,
2013-03-14 11:30:00,67.5,50.2,30.10,SW,215,3.0,6.0,54,0.00,,,-99.99,Weather View 32 v60,2013-03-14 18:30:00,
2013-03-14 11:33:00,65.1,50.4,30.11,NNW,329,4.0,5.0,59,0.00,,,-99.99,Weather View 32 v60,2013-03-14 18:33:00,
2013-03-14 11:35:00,68.1,50.8,30.10,West,265,2.0,6.0,54,0.00,,,-99.99,Weather View 32 v60,2013-03-14 18:35:00,
2013-03-14 11:38:00,65.2,50.5,30.11,SE,140,4.0,5.0,59,0.00,,,-99.99,Weather View 32 v60,2013-03-14 18:38:00,
2013-03-14 11:40:00,68.5,50.6,30.10,NW,310,2.0,6.0,53,0.00,,,-99.99,Weather View 32 v60,2013-03-14 18:40:00,
2013-03-14 11:58:00,64.6,49.9,30.11,SW,234,2.0,5.0,59,0.00,,,-99.99,Weather View 32 v60,2013-03-14 18:58:00,
2013-03-14 12:00:00,68.9,51.0,30.10,SSE,165,4.0,7.0,53,0.00,,,-99.99,Weather View 32 v60,2013-03-14 19:00:00,
2013-03-14 12:03:00,64.3,49.6,30.11,SSE,151,3.0,5.0,59,0.00,,,-99.99,Weather View 32 v60,2013-03-14 19:03:00,
2013-03-14 12:15:00,70.2,51.2,30.09,SE,132,5.0,7.0,51,0.00,,,-99.99,Weather View 32 v60,2013-03-14 19:15:00,
2013-03-14 12:18:00,65.7,50.5,30.11,SW,236,2.0,6.0,58,0.00,,,-99.99,Weather View 32 v60,2013-03-14 19:18:00,
2013-03-14 12:20:00,71.5,51.3,30.09,WNW,283,3.0,7.0,49,0.00,,,-99.99,Weather View 32 v60,2013-03-14 19:20:00,
2013-03-14 12:23:00,66.5,50.3,30.10,SSW,207,5.0,6.0,56,0.00,,,-99.99,Weather View 32 v60,2013-03-14 19:23:00,
2013-03-14 12:30:00,70.5,50.4,30.08,SW,224,2.0,7.0,49,0.00,,,-99.99,Weather View 32 v60,2013-03-14 19:30:00,
2013-03-14 12:40:00,70.8,50.6,30.07,ESE,105,1.0,7.0,49,0.00,,,-99.99,Weather View 32 v60,2013-03-14 19:40:00,
2013-03-14 12:45:00,71.0,50.3,30.08,SSW,211,5.0,7.0,48,0.00,,,-99.99,Weather View 32 v60,2013-03-14 19:45:00,
2013-03-14 12:48:00,68.3,50.5,30.10,SW,216,5.0,6.0,53,0.00,,,-99.99,Weather View 32 v60,2013-03-14 19:48:00,
2013-03-14 12:53:00,67.6,50.3,30.10,SW,232,3.0,7.0,54,0.00,,,-99.99,Weather View 32 v60,2013-03-14 19:53:00,
2013-03-14 13:04:00,68.9,51.0,30.10,SSE,165,4.0,7.0,53,0.00,,,-99.99,Weather View 32 v60,2013-03-14 20:04:00,
2013-03-14 13:13:00,70.0,51.0,30.10,SE,141,4.0,7.0,51,0.00,,,-99.99,Weather View 32 v60,2013-03-14 20:13:00,
2013-03-14 13:20:00,71.8,49.8,30.07,SSE,155,1.0,10.0,46,0.00,,,-99.99,Weather View 32 v60,2013-03-14 20:20:00,
2013-03-14 13:28:00,71.0,50.8,30.09,WSW,238,2.0,7.0,49,0.00,,,-99.99,Weather View 32 v60,2013-03-14 20:28:00,
2013-03-14 13:30:00,74.2,48.9,30.07,SW,225,1.0,10.0,41,0.00,,,-99.99,Weather View 32 v60,2013-03-14 20:30:00,
2013-03-14 13:38:00,70.6,50.5,30.08,East,82,2.0,7.0,49,0.00,,,-99.99,Weather View 32 v60,2013-03-14 20:38:00,
2013-03-14 13:45:00,73.2,49.9,30.06,South,175,4.0,10.0,44,0.00,,,-99.99,Weather View 32 v60,2013-03-14 20:45:00,
2013-03-14 13:50:00,72.8,50.8,30.06,SW,228,4.0,10.0,46,0.00,,,-99.99,Weather View 32 v60,2013-03-14 20:50:00,
2013-03-14 13:53:00,70.8,50.6,30.08,WSW,244,3.0,7.0,49,0.00,,,-99.99,Weather View 32 v60,2013-03-14 20:53:00,
2013-03-14 13:58:00,71.1,50.9,30.08,SW,225,4.0,7.0,49,0.00,,,-99.99,Weather View 32 v60,2013-03-14 20:58:00,
2013-03-14 14:00:00,72.2,51.4,30.06,SW,218,6.0,10.0,48,0.00,,,-99.99,Weather View 32 v60,2013-03-14 21:00:00,
2013-03-14 14:03:00,71.0,50.8,30.08,SW,221,8.0,10.0,49,0.00,,,-99.99,Weather View 32 v60,2013-03-14 21:03:00,
2013-03-14 14:05:00,71.6,51.4,30.06,South,170,5.0,10.0,49,0.00,,,-99.99,Weather View 32 v60,2013-03-14 21:05:00,
2013-03-14 14:08:00,70.5,50.4,30.08,SSE,148,7.0,10.0,49,0.00,,,-99.99,Weather View 32 v60,2013-03-14 21:08:00,
2013-03-14 14:10:00,72.1,52.4,30.06,South,174,7.0,10.0,50,0.00,,,-99.99,Weather View 32 v60,2013-03-14 21:10:00,
2013-03-14 14:13:00,70.6,49.9,30.08,SSW,207,5.0,10.0,48,0.00,,,-99.99,Weather View 32 v60,2013-03-14 21:13:00,
2013-03-14 14:18:00,70.9,50.2,30.08,SSE,166,7.0,10.0,48,0.00,,,-99.99,Weather View 32 v60,2013-03-14 21:18:00,
2013-03-14 14:20:00,73.0,52.7,30.06,SE,141,3.0,10.0,49,0.00,,,-99.99,Weather View 32 v60,2013-03-14 21:20:00,
2013-03-14 14:25:00,73.2,52.8,30.06,SE,137,3.0,10.0,49,0.00,,,-99.99,Weather View 32 v60,2013-03-14 21:25:00,
2013-03-14 14:28:00,73.5,49.6,30.07,WNW,295,3.0,10.0,43,0.00,,,-99.99,Weather View 32 v60,2013-03-14 21:28:00,
2013-03-14 14:38:00,73.4,48.8,30.06,SSW,213,4.0,10.0,42,0.00,,,-99.99,Weather View 32 v60,2013-03-14 21:38:00,
2013-03-14 14:58:00,72.1,50.1,30.06,SSE,152,5.0,10.0,46,0.00,,,-99.99,Weather View 32 v60,2013-03-14 21:58:00,
2013-03-14 15:18:00,73.0,52.7,30.06,SSE,161,6.0,10.0,49,0.00,,,-99.99,Weather View 32 v60,2013-03-14 22:18:00,
2013-03-14 15:33:00,73.0,52.7,30.06,WSW,251,2.0,10.0,49,0.00,,,-99.99,Weather View 32 v60,2013-03-14 22:33:00,
2013-03-14 15:38:00,73.8,52.8,30.07,SW,236,4.0,10.0,48,0.00,,,-99.99,Weather View 32 v60,2013-03-14 22:38:00,
2013-03-14 15:43:00,73.7,53.3,30.07,SW,225,4.0,11.0,49,0.00,,,-99.99,Weather View 32 v60,2013-03-14 22:43:00,
2013-03-14 15:53:00,73.6,53.8,30.06,SSE,160,4.0,11.0,50,0.00,,,-99.99,Weather View 32 v60,2013-03-14 22:53:00,
2013-03-14 16:03:00,73.3,52.9,30.05,ESE,121,2.0,11.0,49,0.00,,,-99.99,Weather View 32 v60,2013-03-14 23:03:00,
2013-03-14 16:08:00,73.8,52.8,30.05,ESE,104,5.0,11.0,48,0.00,,,-99.99,Weather View 32 v60,2013-03-14 23:08:00,
2013-03-14 16:18:00,74.1,53.7,30.06,South,169,5.0,11.0,49,0.00,,,-99.99,Weather View 32 v60,2013-03-14 23:18:00,
2013-03-14 16:23:00,73.6,53.2,30.06,SSE,158,5.0,11.0,49,0.00,,,-99.99,Weather View 32 v60,2013-03-14 23:23:00,
2013-03-14 16:33:00,73.6,52.6,30.06,SE,134,2.0,11.0,48,0.00,,,-99.99,Weather View 32 v60,2013-03-14 23:33:00,
2013-03-14 16:38:00,73.6,51.5,30.06,ESE,121,3.0,11.0,46,0.00,,,-99.99,Weather View 32 v60,2013-03-14 23:38:00,
2013-03-14 16:43:00,73.7,51.6,30.06,SW,228,2.0,11.0,46,0.00,,,-99.99,Weather View 32 v60,2013-03-14 23:43:00,
2013-03-14 16:53:00,73.6,49.0,30.06,WNW,303,3.0,9.0,42,0.00,,,-99.99,Weather View 32 v60,2013-03-14 23:53:00,
2013-03-14 16:58:00,74.0,38.7,30.06,NW,326,2.0,13.0,28,0.00,,,-99.99,Weather View 32 v60,2013-03-14 23:58:00,
2013-03-14 17:00:00,68.0,46.4,30.02,SE,133,3.0,15.0,46,0.00,,,-99.99,Weather View 32 v60,2013-03-15 00:00:00,
2013-03-14 17:03:00,74.4,34.1,30.06,North,357,5.0,14.0,23,0.00,,,-99.99,Weather View 32 v60,2013-03-15 00:03:00,
2013-03-14 17:05:00,67.9,46.9,30.02,SE,141,4.0,15.0,47,0.00,,,-99.99,Weather View 32 v60,2013-03-15 00:05:00,
2013-03-14 17:08:00,74.5,33.1,30.06,WNW,301,10.0,14.0,22,0.00,,,-99.99,Weather View 32 v60,2013-03-15 00:08:00,
2013-03-14 17:13:00,74.4,31.8,30.06,NW,304,6.0,15.0,21,0.00,,,-99.99,Weather View 32 v60,2013-03-15 00:13:00,
2013-03-14 17:18:00,74.5,33.1,30.05,NW,324,2.0,15.0,22,0.00,,,-99.99,Weather View 32 v60,2013-03-15 00:18:00,
2013-03-14 17:23:00,74.3,40.8,30.05,SE,134,4.0,15.0,30,0.00,,,-99.99,Weather View 32 v60,2013-03-15 00:23:00,
2013-03-14 17:33:00,70.1,47.1,30.04,SSE,164,4.0,15.0,44,0.00,,,-99.99,Weather View 32 v60,2013-03-15 00:33:00,
2013-03-14 17:38:00,68.7,47.0,30.04,SSW,212,2.0,15.0,46,0.00,,,-99.99,Weather View 32 v60,2013-03-15 00:38:00,
2013-03-14 17:40:00,65.9,47.7,30.03,SW,228,5.0,8.0,52,0.00,,,-99.99,Weather View 32 v60,2013-03-15 00:40:00,
2013-03-14 17:43:00,68.3,46.7,30.04,SE,134,3.0,15.0,46,0.00,,,-99.99,Weather View 32 v60,2013-03-15 00:43:00,
2013-03-14 17:48:00,68.2,47.1,30.04,SE,143,4.0,15.0,47,0.00,,,-99.99,Weather View 32 v60,2013-03-15 00:48:00,
2013-03-14 17:53:00,68.1,47.1,30.04,South,170,4.0,15.0,47,0.00,,,-99.99,Weather View 32 v60,2013-03-15 00:53:00,
2013-03-14 18:00:00,64.4,48.3,30.03,SSW,213,4.0,8.0,56,0.00,,,-99.99,Weather View 32 v60,2013-03-15 01:00:00,
2013-03-14 18:03:00,68.0,46.4,30.02,SE,133,3.0,15.0,46,0.00,,,-99.99,Weather View 32 v60,2013-03-15 01:03:00,
2013-03-14 18:13:00,67.7,47.2,30.02,SSE,148,5.0,11.0,48,0.00,,,-99.99,Weather View 32 v60,2013-03-15 01:13:00,
2013-03-14 18:18:00,67.6,47.7,30.02,SSE,152,4.0,11.0,49,0.00,,,-99.99,Weather View 32 v60,2013-03-15 01:18:00,
2013-03-14 18:20:00,62.9,48.8,30.03,SE,132,5.0,8.0,60,0.00,,,-99.99,Weather View 32 v60,2013-03-15 01:20:00,
2013-03-14 18:23:00,67.3,47.4,30.03,South,179,6.0,11.0,49,0.00,,,-99.99,Weather View 32 v60,2013-03-15 01:23:00,
2013-03-14 18:28:00,67.1,47.8,30.03,SSW,207,7.0,11.0,50,0.00,,,-99.99,Weather View 32 v60,2013-03-15 01:28:00,
2013-03-14 18:30:00,62.5,49.3,30.03,SE,139,4.0,8.0,62,0.00,,,-99.99,Weather View 32 v60,2013-03-15 01:30:00,
2013-03-14 18:38:00,66.5,47.8,30.04,SW,219,3.0,9.0,51,0.00,,,-99.99,Weather View 32 v60,2013-03-15 01:38:00,
2013-03-14 18:40:00,62.1,48.9,30.03,SSE,155,3.0,8.0,62,0.00,,,-99.99,Weather View 32 v60,2013-03-15 01:40:00,
2013-03-14 18:48:00,65.3,47.7,30.03,SSW,205,2.0,8.0,53,0.00,,,-99.99,Weather View 32 v60,2013-03-15 01:48:00,
2013-03-14 18:53:00,65.2,48.1,30.03,SW,215,4.0,8.0,54,0.00,,,-99.99,Weather View 32 v60,2013-03-15 01:53:00,
2013-03-14 18:55:00,61.5,48.8,30.03,SE,146,3.0,8.0,63,0.00,,,-99.99,Weather View 32 v60,2013-03-15 01:55:00,
2013-03-14 18:58:00,64.8,48.2,30.04,SW,215,3.0,8.0,55,0.00,,,-99.99,Weather View 32 v60,2013-03-15 01:58:00,
2013-03-14 19:00:00,61.3,48.6,30.03,SSE,166,2.0,8.0,63,0.00,,,-99.99,Weather View 32 v60,2013-03-15 02:00:00,
2013-03-14 19:05:00,60.9,48.2,30.03,SSE,149,2.0,8.0,63,0.00,,,-99.99,Weather View 32 v60,2013-03-15 02:05:00,
2013-03-14 19:08:00,64.1,48.5,30.03,SE,137,5.0,8.0,57,0.00,,,-99.99,Weather View 32 v60,2013-03-15 02:08:00,
2013-03-14 19:10:00,60.5,47.8,30.03,SE,133,1.0,8.0,63,0.00,,,-99.99,Weather View 32 v60,2013-03-15 02:10:00,
2013-03-14 19:13:00,63.8,48.2,30.03,SSE,162,3.0,8.0,57,0.00,,,-99.99,Weather View 32 v60,2013-03-15 02:13:00,
2013-03-14 19:18:00,63.3,48.7,30.03,SE,146,7.0,8.0,59,0.00,,,-99.99,Weather View 32 v60,2013-03-15 02:18:00,
2013-03-14 19:28:00,62.6,48.9,30.03,East,99,1.0,8.0,61,0.00,,,-99.99,Weather View 32 v60,2013-03-15 02:28:00,
2013-03-14 19:30:00,59.1,47.3,30.04,SSE,151,3.0,6.0,65,0.00,,,-99.99,Weather View 32 v60,2013-03-15 02:30:00,
2013-03-14 19:35:00,58.9,47.1,30.04,ESE,114,2.0,7.0,65,0.00,,,-99.99,Weather View 32 v60,2013-03-15 02:35:00,
2013-03-14 19:38:00,62.4,49.2,30.03,South,174,3.0,8.0,62,0.00,,,-99.99,Weather View 32 v60,2013-03-15 02:38:00,
2013-03-14 19:40:00,58.6,46.8,30.04,SSE,163,4.0,7.0,65,0.00,,,-99.99,Weather View 32 v60,2013-03-15 02:40:00,
2013-03-14 19:45:00,58.3,46.6,30.04,SE,126,3.0,7.0,65,0.00,,,-99.99,Weather View 32 v60,2013-03-15 02:45:00,
2013-03-14 19:48:00,62.0,49.2,30.04,SSW,203,2.0,8.0,63,0.00,,,-99.99,Weather View 32 v60,2013-03-15 02:48:00,
2013-03-14 19:53:00,61.8,49.0,30.03,SW,220,2.0,8.0,63,0.00,,,-99.99,Weather View 32 v60,2013-03-15 02:53:00,
2013-03-14 20:00:00,57.4,46.5,30.05,SSE,149,3.0,7.0,67,0.00,,,-99.99,Weather View 32 v60,2013-03-15 03:00:00,
2013-03-14 20:03:00,61.3,48.6,30.03,SSE,166,2.0,8.0,63,0.00,,,-99.99,Weather View 32 v60,2013-03-15 03:03:00,
2013-03-14 20:05:00,57.0,46.5,30.05,South,170,1.0,7.0,68,0.00,,,-99.99,Weather View 32 v60,2013-03-15 03:05:00,
2013-03-14 20:10:00,56.8,46.3,30.05,South,174,2.0,7.0,68,0.00,,,-99.99,Weather View 32 v60,2013-03-15 03:10:00,
2013-03-14 20:15:00,56.5,46.4,30.05,SE,137,1.0,7.0,69,0.00,,,-99.99,Weather View 32 v60,2013-03-15 03:15:00,
2013-03-14 20:18:00,60.2,47.9,30.03,SSW,210,2.0,8.0,64,0.00,,,-99.99,Weather View 32 v60,2013-03-15 03:18:00,
2013-03-14 20:20:00,56.1,46.0,30.05,SSW,205,2.0,7.0,69,0.00,,,-99.99,Weather View 32 v60,2013-03-15 03:20:00,
2013-03-14 20:23:00,59.9,47.7,30.04,SSW,213,2.0,8.0,64,0.00,,,-99.99,Weather View 32 v60,2013-03-15 03:23:00,
2013-03-14 20:25:00,55.9,46.2,30.05,ESE,108,2.0,7.0,70,0.00,,,-99.99,Weather View 32 v60,2013-03-15 03:25:00,
2013-03-14 20:28:00,59.5,47.7,30.04,SW,215,1.0,6.0,65,0.00,,,-99.99,Weather View 32 v60,2013-03-15 03:28:00,
2013-03-14 20:30:00,55.6,45.9,30.06,NNE,19,1.0,7.0,70,0.00,,,-99.99,Weather View 32 v60,2013-03-15 03:30:00,
2013-03-14 20:35:00,55.3,46.0,30.06,South,175,1.0,5.0,71,0.00,,,-99.99,Weather View 32 v60,2013-03-15 03:35:00,
2013-03-14 20:40:00,54.9,46.0,30.06,ESE,107,2.0,4.0,72,0.00,,,-99.99,Weather View 32 v60,2013-03-15 03:40:00,
2013-03-14 20:45:00,54.5,46.0,30.06,ESE,105,0.0,4.0,73,0.00,,,-99.99,Weather View 32 v60,2013-03-15 03:45:00,
2013-03-14 20:50:00,54.0,45.5,30.06,SSW,203,1.0,4.0,73,0.00,,,-99.99,Weather View 32 v60,2013-03-15 03:50:00,
2013-03-14 20:53:00,57.9,46.6,30.04,SE,142,2.0,7.0,66,0.00,,,-99.99,Weather View 32 v60,2013-03-15 03:53:00,
2013-03-14 20:55:00,53.7,45.6,30.06,SSE,164,0.0,4.0,74,0.00,,,-99.99,Weather View 32 v60,2013-03-15 03:55:00,
2013-03-14 20:58:00,57.6,46.7,30.05,SSE,162,2.0,7.0,67,0.00,,,-99.99,Weather View 32 v60,2013-03-15 03:58:00,
2013-03-14 21:00:00,53.3,45.6,30.06,ENE,62,2.0,4.0,75,0.00,,,-99.99,Weather View 32 v60,2013-03-15 04:00:00,
2013-03-14 21:05:00,52.8,45.4,30.06,NE,49,0.0,4.0,76,0.00,,,-99.99,Weather View 32 v60,2013-03-15 04:05:00,
2013-03-14 21:10:00,52.4,45.4,30.06,South,171,2.0,4.0,77,0.00,,,-99.99,Weather View 32 v60,2013-03-15 04:10:00,
2013-03-14 21:15:00,52.1,45.1,30.07,SE,141,1.0,4.0,77,0.00,,,-99.99,Weather View 32 v60,2013-03-15 04:15:00,
2013-03-14 21:20:00,51.7,44.7,30.07,SE,129,1.0,4.0,77,0.00,,,-99.99,Weather View 32 v60,2013-03-15 04:20:00,
2013-03-14 21:25:00,51.4,44.8,30.07,ESE,106,0.0,4.0,78,0.00,,,-99.99,Weather View 32 v60,2013-03-15 04:25:00,
2013-03-14 21:30:00,51.3,45.0,30.07,SE,145,0.0,4.0,79,0.00,,,-99.99,Weather View 32 v60,2013-03-15 04:30:00,
2013-03-14 21:35:00,51.0,44.7,30.07,SE,145,0.0,3.0,79,0.00,,,-99.99,Weather View 32 v60,2013-03-15 04:35:00,
2013-03-14 21:40:00,50.7,44.4,30.07,ENE,64,0.0,3.0,79,0.00,,,-99.99,Weather View 32 v60,2013-03-15 04:40:00,
2013-03-14 21:45:00,50.4,44.5,30.06,ENE,64,0.0,2.0,80,0.00,,,-99.99,Weather View 32 v60,2013-03-15 04:45:00,
2013-03-14 21:50:00,50.1,44.2,30.07,ENE,70,1.0,2.0,80,0.00,,,-99.99,Weather View 32 v60,2013-03-15 04:50:00,
2013-03-14 21:55:00,49.8,44.2,30.06,NE,55,1.0,2.0,81,0.00,,,-99.99,Weather View 32 v60,2013-03-15 04:55:00,
2013-03-14 22:00:00,49.5,43.9,30.07,NE,55,1.0,2.0,81,0.00,,,-99.99,Weather View 32 v60,2013-03-15 05:00:00,
2013-03-14 22:05:00,49.2,43.9,30.07,NE,53,1.0,2.0,82,0.00,,,-99.99,Weather View 32 v60,2013-03-15 05:05:00,
2013-03-14 22:10:00,49.2,43.9,30.07,NE,53,1.0,2.0,82,0.00,,,-99.99,Weather View 32 v60,2013-03-15 05:10:00,
2013-03-14 22:15:00,49.1,43.8,30.07,NE,53,0.0,2.0,82,0.00,,,-99.99,Weather View 32 v60,2013-03-15 05:15:00,
2013-03-14 22:20:00,48.8,43.9,30.07,NE,54,0.0,2.0,83,0.00,,,-99.99,Weather View 32 v60,2013-03-15 05:20:00,
2013-03-14 22:25:00,48.8,44.2,30.07,NNW,340,1.0,2.0,84,0.00,,,-99.99,Weather View 32 v60,2013-03-15 05:25:00,
2013-03-14 22:30:00,49.0,44.4,30.07,ENE,61,2.0,2.0,84,0.00,,,-99.99,Weather View 32 v60,2013-03-15 05:30:00,
2013-03-14 22:35:00,48.8,43.9,30.07,East,86,3.0,3.0,83,0.00,,,-99.99,Weather View 32 v60,2013-03-15 05:35:00,
2013-03-14 22:40:00,48.6,43.7,30.07,East,92,3.0,3.0,83,0.00,,,-99.99,Weather View 32 v60,2013-03-15 05:40:00,
2013-03-14 22:45:00,48.2,43.3,30.07,ESE,116,1.0,4.0,83,0.00,,,-99.99,Weather View 32 v60,2013-03-15 05:45:00,
2013-03-14 22:50:00,47.9,43.3,30.07,ESE,108,1.0,4.0,84,0.00,,,-99.99,Weather View 32 v60,2013-03-15 05:50:00,
2013-03-14 22:55:00,47.8,43.2,30.07,ESE,123,1.0,4.0,84,0.00,,,-99.99,Weather View 32 v60,2013-03-15 05:55:00,
2013-03-14 23:00:00,47.8,43.2,30.07,SSE,163,1.0,4.0,84,0.00,,,-99.99,Weather View 32 v60,2013-03-15 06:00:00,
2013-03-14 23:05:00,47.7,43.1,30.07,SE,142,1.0,4.0,84,0.00,,,-99.99,Weather View 32 v60,2013-03-15 06:05:00,
2013-03-14 23:10:00,47.8,43.5,30.07,SE,127,1.0,4.0,85,0.00,,,-99.99,Weather View 32 v60,2013-03-15 06:10:00,
2013-03-14 23:15:00,47.4,42.8,30.07,NNE,21,2.0,4.0,84,0.00,,,-99.99,Weather View 32 v60,2013-03-15 06:15:00,
2013-03-14 23:20:00,47.1,42.5,30.06,NE,42,2.0,4.0,84,0.00,,,-99.99,Weather View 32 v60,2013-03-15 06:20:00,
2013-03-14 23:25:00,46.8,42.5,30.06,NNE,24,1.0,4.0,85,0.00,,,-99.99,Weather View 32 v60,2013-03-15 06:25:00,
2013-03-14 23:30:00,46.6,42.3,30.06,North,2,1.0,4.0,85,0.00,,,-99.99,Weather View 32 v60,2013-03-15 06:30:00,
2013-03-14 23:35:00,46.5,42.5,30.06,North,354,1.0,4.0,86,0.00,,,-99.99,Weather View 32 v60,2013-03-15 06:35:00,
2013-03-14 23:40:00,46.5,42.5,30.07,WSW,254,2.0,4.0,86,0.00,,,-99.99,Weather View 32 v60,2013-03-15 06:40:00,
2013-03-14 23:45:00,46.7,42.7,30.06,WSW,256,1.0,3.0,86,0.00,,,-99.99,Weather View 32 v60,2013-03-15 06:45:00,
2013-03-14 23:50:00,46.9,43.2,30.07,WSW,253,1.0,3.0,87,0.00,,,-99.99,Weather View 32 v60,2013-03-15 06:50:00,
2013-03-14 23:55:00,47.1,43.4,30.07,SW,229,2.0,3.0,87,0.00,,,-99.99,Weather View 32 v60,2013-03-15 06:55:00,